sensor_id;sensor_type;location;lat;lon;timestamp;P1;durP1;ratioP1;P2;durP2;ratioP2
55170;SDS011;41060;47.510;8.680;2024-02-16T00:02:03;5.03;;;2.53;;
55170;SDS011;41060;47.510;8.680;2024-02-16T00:04:30;5.13;;;2.53;;
55170;SDS011;41060;47.510;8.680;2024-02-16T00:07:00;6.90;;;2.70;;
55170;SDS011;41060;47.510;8.680;2024-02-16T00:09:26;3.60;;;2.33;;
55170;SDS011;41060;47.510;8.680;2024-02-16T00:11:53;4.50;;;2.40;;
55170;SDS011;41060;47.510;8.680;2024-02-16T00:14:20;4.80;;;2.60;;
55170;SDS011;41060;47.510;8.680;2024-02-16T00:16:48;4.18;;;2.70;;
55170;SDS011;41060;47.510;8.680;2024-02-16T00:19:15;5.13;;;2.40;;
55170;SDS011;41060;47.510;8.680;2024-02-16T00:21:42;5.55;;;2.88;;
55170;SDS011;41060;47.510;8.680;2024-02-16T00:24:09;4.15;;;2.28;;
55170;SDS011;41060;47.510;8.680;2024-02-16T00:26:36;3.72;;;2.70;;
55170;SDS011;41060;47.510;8.680;2024-02-16T00:29:05;4.85;;;3.05;;
55170;SDS011;41060;47.510;8.680;2024-02-16T00:31:34;5.97;;;2.90;;
55170;SDS011;41060;47.510;8.680;2024-02-16T00:34:02;4.82;;;2.78;;
55170;SDS011;41060;47.510;8.680;2024-02-16T00:36:30;4.75;;;2.50;;
55170;SDS011;41060;47.510;8.680;2024-02-16T00:38:58;6.05;;;2.47;;
55170;SDS011;41060;47.510;8.680;2024-02-16T00:41:25;5.43;;;3.42;;
55170;SDS011;41060;47.510;8.680;2024-02-16T00:43:52;5.85;;;2.75;;
55170;SDS011;41060;47.510;8.680;2024-02-16T00:46:18;5.13;;;2.95;;
55170;SDS011;41060;47.510;8.680;2024-02-16T00:48:48;4.32;;;3.17;;
55170;SDS011;41060;47.510;8.680;2024-02-16T00:51:16;5.28;;;3.38;;
55170;SDS011;41060;47.510;8.680;2024-02-16T00:53:43;3.90;;;2.55;;
55170;SDS011;41060;47.510;8.680;2024-02-16T00:56:10;7.22;;;2.55;;
55170;SDS011;41060;47.510;8.680;2024-02-16T00:58:39;5.97;;;2.92;;
55170;SDS011;41060;47.510;8.680;2024-02-16T01:01:08;3.83;;;2.55;;
55170;SDS011;41060;47.510;8.680;2024-02-16T01:03:37;6.72;;;3.17;;
55170;SDS011;41060;47.510;8.680;2024-02-16T01:06:04;6.03;;;3.00;;
55170;SDS011;41060;47.510;8.680;2024-02-16T01:08:35;4.13;;;2.70;;
55170;SDS011;41060;47.510;8.680;2024-02-16T01:11:02;8.35;;;3.65;;
55170;SDS011;41060;47.510;8.680;2024-02-16T01:13:29;6.43;;;3.03;;
55170;SDS011;41060;47.510;8.680;2024-02-16T01:15:57;9.35;;;3.17;;
55170;SDS011;41060;47.510;8.680;2024-02-16T01:18:24;5.15;;;2.58;;
55170;SDS011;41060;47.510;8.680;2024-02-16T01:20:52;7.32;;;2.75;;
55170;SDS011;41060;47.510;8.680;2024-02-16T01:23:19;7.63;;;3.35;;
55170;SDS011;41060;47.510;8.680;2024-02-16T01:25:48;8.10;;;2.92;;
55170;SDS011;41060;47.510;8.680;2024-02-16T01:28:14;4.72;;;3.10;;
55170;SDS011;41060;47.510;8.680;2024-02-16T01:30:41;4.88;;;2.70;;
55170;SDS011;41060;47.510;8.680;2024-02-16T01:33:08;7.53;;;4.20;;
55170;SDS011;41060;47.510;8.680;2024-02-16T01:35:39;5.55;;;3.55;;
55170;SDS011;41060;47.510;8.680;2024-02-16T01:38:06;8.40;;;3.92;;
55170;SDS011;41060;47.510;8.680;2024-02-16T01:40:33;3.90;;;2.60;;
55170;SDS011;41060;47.510;8.680;2024-02-16T01:43:02;6.63;;;3.03;;
55170;SDS011;41060;47.510;8.680;2024-02-16T01:45:30;5.32;;;3.05;;
55170;SDS011;41060;47.510;8.680;2024-02-16T01:47:57;9.65;;;3.15;;
55170;SDS011;41060;47.510;8.680;2024-02-16T01:50:28;5.40;;;3.42;;
55170;SDS011;41060;47.510;8.680;2024-02-16T01:52:55;5.53;;;2.95;;
55170;SDS011;41060;47.510;8.680;2024-02-16T01:55:22;3.53;;;2.47;;
55170;SDS011;41060;47.510;8.680;2024-02-16T01:57:51;6.10;;;2.78;;
55170;SDS011;41060;47.510;8.680;2024-02-16T02:00:19;7.47;;;3.80;;
55170;SDS011;41060;47.510;8.680;2024-02-16T02:02:46;6.15;;;3.40;;
55170;SDS011;41060;47.510;8.680;2024-02-16T02:05:13;5.45;;;2.90;;
55170;SDS011;41060;47.510;8.680;2024-02-16T02:07:40;5.95;;;3.00;;
55170;SDS011;41060;47.510;8.680;2024-02-16T02:10:08;6.97;;;3.53;;
55170;SDS011;41060;47.510;8.680;2024-02-16T02:12:38;4.72;;;2.80;;
55170;SDS011;41060;47.510;8.680;2024-02-16T02:15:06;5.78;;;2.83;;
55170;SDS011;41060;47.510;8.680;2024-02-16T02:17:35;5.05;;;2.97;;
55170;SDS011;41060;47.510;8.680;2024-02-16T02:20:02;5.30;;;3.03;;
55170;SDS011;41060;47.510;8.680;2024-02-16T02:22:33;5.10;;;3.05;;
55170;SDS011;41060;47.510;8.680;2024-02-16T02:25:03;5.38;;;3.42;;
55170;SDS011;41060;47.510;8.680;2024-02-16T02:27:31;10.80;;;3.60;;
55170;SDS011;41060;47.510;8.680;2024-02-16T02:30:01;5.88;;;2.95;;
55170;SDS011;41060;47.510;8.680;2024-02-16T02:32:28;7.50;;;3.80;;
55170;SDS011;41060;47.510;8.680;2024-02-16T02:34:54;9.95;;;2.85;;
55170;SDS011;41060;47.510;8.680;2024-02-16T02:37:25;5.53;;;3.00;;
55170;SDS011;41060;47.510;8.680;2024-02-16T02:39:55;5.22;;;3.47;;
55170;SDS011;41060;47.510;8.680;2024-02-16T02:42:23;8.40;;;3.15;;
55170;SDS011;41060;47.510;8.680;2024-02-16T02:44:50;5.60;;;3.15;;
55170;SDS011;41060;47.510;8.680;2024-02-16T02:47:16;8.32;;;3.60;;
55170;SDS011;41060;47.510;8.680;2024-02-16T02:49:43;9.13;;;3.58;;
55170;SDS011;41060;47.510;8.680;2024-02-16T02:52:11;7.75;;;3.13;;
55170;SDS011;41060;47.510;8.680;2024-02-16T02:54:37;4.88;;;2.83;;
55170;SDS011;41060;47.510;8.680;2024-02-16T02:57:06;6.97;;;3.45;;
55170;SDS011;41060;47.510;8.680;2024-02-16T02:59:33;6.25;;;3.47;;
55170;SDS011;41060;47.510;8.680;2024-02-16T03:02:00;7.45;;;3.92;;
55170;SDS011;41060;47.510;8.680;2024-02-16T03:04:29;9.18;;;4.68;;
55170;SDS011;41060;47.510;8.680;2024-02-16T03:06:56;4.50;;;3.28;;
55170;SDS011;41060;47.510;8.680;2024-02-16T03:09:23;5.18;;;2.65;;
55170;SDS011;41060;47.510;8.680;2024-02-16T03:11:52;4.45;;;2.53;;
55170;SDS011;41060;47.510;8.680;2024-02-16T03:14:21;7.70;;;2.75;;
55170;SDS011;41060;47.510;8.680;2024-02-16T03:16:47;7.82;;;2.90;;
55170;SDS011;41060;47.510;8.680;2024-02-16T03:19:14;4.88;;;2.55;;
55170;SDS011;41060;47.510;8.680;2024-02-16T03:21:41;6.45;;;2.67;;
55170;SDS011;41060;47.510;8.680;2024-02-16T03:24:09;4.63;;;3.00;;
55170;SDS011;41060;47.510;8.680;2024-02-16T03:26:35;6.35;;;2.90;;
55170;SDS011;41060;47.510;8.680;2024-02-16T03:29:02;3.63;;;2.40;;
55170;SDS011;41060;47.510;8.680;2024-02-16T03:31:30;6.63;;;3.17;;
55170;SDS011;41060;47.510;8.680;2024-02-16T03:33:58;4.88;;;2.70;;
55170;SDS011;41060;47.510;8.680;2024-02-16T03:36:25;5.43;;;3.17;;
55170;SDS011;41060;47.510;8.680;2024-02-16T03:38:52;5.97;;;3.13;;
55170;SDS011;41060;47.510;8.680;2024-02-16T03:41:21;5.65;;;2.85;;
55170;SDS011;41060;47.510;8.680;2024-02-16T03:43:49;5.60;;;3.15;;
55170;SDS011;41060;47.510;8.680;2024-02-16T03:46:18;5.70;;;2.80;;
55170;SDS011;41060;47.510;8.680;2024-02-16T03:48:46;5.30;;;2.65;;
55170;SDS011;41060;47.510;8.680;2024-02-16T03:51:13;5.63;;;3.08;;
55170;SDS011;41060;47.510;8.680;2024-02-16T03:53:43;4.85;;;3.03;;
55170;SDS011;41060;47.510;8.680;2024-02-16T03:56:10;6.53;;;3.40;;
55170;SDS011;41060;47.510;8.680;2024-02-16T03:58:38;7.45;;;3.38;;
55170;SDS011;41060;47.510;8.680;2024-02-16T04:01:04;4.32;;;2.70;;
55170;SDS011;41060;47.510;8.680;2024-02-16T04:03:31;8.02;;;3.15;;
55170;SDS011;41060;47.510;8.680;2024-02-16T04:06:00;4.35;;;2.90;;
55170;SDS011;41060;47.510;8.680;2024-02-16T04:08:29;5.18;;;2.97;;
55170;SDS011;41060;47.510;8.680;2024-02-16T04:10:56;6.80;;;2.90;;
55170;SDS011;41060;47.510;8.680;2024-02-16T04:13:23;6.43;;;2.90;;
55170;SDS011;41060;47.510;8.680;2024-02-16T04:15:50;7.53;;;3.65;;
55170;SDS011;41060;47.510;8.680;2024-02-16T04:18:17;5.13;;;3.33;;
55170;SDS011;41060;47.510;8.680;2024-02-16T04:20:44;6.90;;;3.47;;
55170;SDS011;41060;47.510;8.680;2024-02-16T04:23:12;5.63;;;3.13;;
55170;SDS011;41060;47.510;8.680;2024-02-16T04:25:39;7.55;;;3.72;;
55170;SDS011;41060;47.510;8.680;2024-02-16T04:28:06;9.50;;;3.55;;
55170;SDS011;41060;47.510;8.680;2024-02-16T04:30:33;3.95;;;2.50;;
55170;SDS011;41060;47.510;8.680;2024-02-16T04:33:02;6.35;;;3.50;;
55170;SDS011;41060;47.510;8.680;2024-02-16T04:35:30;7.50;;;3.40;;
55170;SDS011;41060;47.510;8.680;2024-02-16T04:37:57;4.75;;;2.92;;
55170;SDS011;41060;47.510;8.680;2024-02-16T04:40:25;5.32;;;3.40;;
55170;SDS011;41060;47.510;8.680;2024-02-16T04:42:52;7.00;;;2.60;;
55170;SDS011;41060;47.510;8.680;2024-02-16T04:45:18;7.40;;;3.22;;
55170;SDS011;41060;47.510;8.680;2024-02-16T04:47:45;5.82;;;2.85;;
55170;SDS011;41060;47.510;8.680;2024-02-16T04:50:12;5.20;;;2.88;;
55170;SDS011;41060;47.510;8.680;2024-02-16T04:52:39;8.95;;;3.78;;
55170;SDS011;41060;47.510;8.680;2024-02-16T04:55:06;6.13;;;4.18;;
55170;SDS011;41060;47.510;8.680;2024-02-16T04:57:35;6.28;;;3.85;;
55170;SDS011;41060;47.510;8.680;2024-02-16T05:00:02;6.07;;;3.20;;
55170;SDS011;41060;47.510;8.680;2024-02-16T05:02:29;10.43;;;3.72;;
55170;SDS011;41060;47.510;8.680;2024-02-16T05:04:57;7.63;;;3.72;;
55170;SDS011;41060;47.510;8.680;2024-02-16T05:07:23;6.95;;;3.03;;
55170;SDS011;41060;47.510;8.680;2024-02-16T05:09:50;6.53;;;3.17;;
55170;SDS011;41060;47.510;8.680;2024-02-16T05:12:24;5.82;;;3.58;;
55170;SDS011;41060;47.510;8.680;2024-02-16T05:14:52;4.53;;;3.20;;
55170;SDS011;41060;47.510;8.680;2024-02-16T05:17:19;9.18;;;3.58;;
55170;SDS011;41060;47.510;8.680;2024-02-16T05:19:48;5.45;;;3.15;;
55170;SDS011;41060;47.510;8.680;2024-02-16T05:22:15;6.38;;;2.80;;
55170;SDS011;41060;47.510;8.680;2024-02-16T05:24:43;6.30;;;3.00;;
55170;SDS011;41060;47.510;8.680;2024-02-16T05:27:10;6.70;;;3.25;;
55170;SDS011;41060;47.510;8.680;2024-02-16T05:29:37;5.10;;;3.42;;
55170;SDS011;41060;47.510;8.680;2024-02-16T05:32:07;5.93;;;3.15;;
55170;SDS011;41060;47.510;8.680;2024-02-16T05:34:36;5.18;;;3.33;;
55170;SDS011;41060;47.510;8.680;2024-02-16T05:37:03;6.18;;;3.72;;
55170;SDS011;41060;47.510;8.680;2024-02-16T05:39:31;6.15;;;3.17;;
55170;SDS011;41060;47.510;8.680;2024-02-16T05:42:01;8.20;;;2.97;;
55170;SDS011;41060;47.510;8.680;2024-02-16T05:44:29;4.60;;;3.20;;
55170;SDS011;41060;47.510;8.680;2024-02-16T05:46:57;6.43;;;3.65;;
55170;SDS011;41060;47.510;8.680;2024-02-16T05:49:26;7.22;;;3.28;;
55170;SDS011;41060;47.510;8.680;2024-02-16T05:51:53;6.25;;;2.90;;
55170;SDS011;41060;47.510;8.680;2024-02-16T05:54:38;7.15;;;3.05;;
55170;SDS011;41060;47.510;8.680;2024-02-16T05:57:05;5.82;;;2.75;;
55170;SDS011;41060;47.510;8.680;2024-02-16T05:59:34;7.47;;;3.17;;
55170;SDS011;41060;47.510;8.680;2024-02-16T06:02:02;5.20;;;3.13;;
55170;SDS011;41060;47.510;8.680;2024-02-16T06:04:30;5.50;;;3.30;;
55170;SDS011;41060;47.510;8.680;2024-02-16T06:06:56;6.55;;;2.97;;
55170;SDS011;41060;47.510;8.680;2024-02-16T06:09:24;6.45;;;3.13;;
55170;SDS011;41060;47.510;8.680;2024-02-16T06:11:50;6.30;;;3.25;;
55170;SDS011;41060;47.510;8.680;2024-02-16T06:14:17;4.88;;;2.50;;
55170;SDS011;41060;47.510;8.680;2024-02-16T06:16:45;8.00;;;3.00;;
55170;SDS011;41060;47.510;8.680;2024-02-16T06:19:12;5.05;;;3.20;;
55170;SDS011;41060;47.510;8.680;2024-02-16T06:21:40;5.63;;;3.75;;
55170;SDS011;41060;47.510;8.680;2024-02-16T06:24:09;5.82;;;3.42;;
55170;SDS011;41060;47.510;8.680;2024-02-16T06:26:35;10.00;;;3.78;;
55170;SDS011;41060;47.510;8.680;2024-02-16T06:29:02;7.28;;;3.75;;
55170;SDS011;41060;47.510;8.680;2024-02-16T06:31:32;7.53;;;3.88;;
55170;SDS011;41060;47.510;8.680;2024-02-16T06:33:58;6.90;;;3.25;;
55170;SDS011;41060;47.510;8.680;2024-02-16T06:36:25;4.45;;;3.30;;
55170;SDS011;41060;47.510;8.680;2024-02-16T06:38:54;6.82;;;3.75;;
55170;SDS011;41060;47.510;8.680;2024-02-16T06:41:20;7.10;;;2.88;;
55170;SDS011;41060;47.510;8.680;2024-02-16T06:43:47;6.97;;;3.40;;
55170;SDS011;41060;47.510;8.680;2024-02-16T06:46:15;7.55;;;3.20;;
55170;SDS011;41060;47.510;8.680;2024-02-16T06:48:41;5.63;;;3.15;;
55170;SDS011;41060;47.510;8.680;2024-02-16T06:51:11;5.47;;;3.20;;
55170;SDS011;41060;47.510;8.680;2024-02-16T06:53:38;6.03;;;3.88;;
55170;SDS011;41060;47.510;8.680;2024-02-16T06:56:06;6.97;;;4.15;;
55170;SDS011;41060;47.510;8.680;2024-02-16T06:58:33;6.07;;;3.25;;
55170;SDS011;41060;47.510;8.680;2024-02-16T07:01:02;6.80;;;3.28;;
55170;SDS011;41060;47.510;8.680;2024-02-16T07:03:29;4.28;;;3.13;;
55170;SDS011;41060;47.510;8.680;2024-02-16T07:05:55;4.90;;;2.90;;
55170;SDS011;41060;47.510;8.680;2024-02-16T07:08:22;6.57;;;3.38;;
55170;SDS011;41060;47.510;8.680;2024-02-16T07:10:51;3.78;;;2.50;;
55170;SDS011;41060;47.510;8.680;2024-02-16T07:13:19;4.03;;;2.83;;
55170;SDS011;41060;47.510;8.680;2024-02-16T07:15:46;5.85;;;3.47;;
55170;SDS011;41060;47.510;8.680;2024-02-16T07:18:13;5.10;;;3.15;;
55170;SDS011;41060;47.510;8.680;2024-02-16T07:20:41;8.57;;;3.55;;
55170;SDS011;41060;47.510;8.680;2024-02-16T07:23:09;7.72;;;3.10;;
55170;SDS011;41060;47.510;8.680;2024-02-16T07:25:35;6.05;;;3.53;;
55170;SDS011;41060;47.510;8.680;2024-02-16T07:28:02;5.97;;;3.70;;
55170;SDS011;41060;47.510;8.680;2024-02-16T07:30:34;11.60;;;3.30;;
55170;SDS011;41060;47.510;8.680;2024-02-16T07:33:03;13.85;;;5.63;;
55170;SDS011;41060;47.510;8.680;2024-02-16T07:35:30;11.32;;;3.72;;
55170;SDS011;41060;47.510;8.680;2024-02-16T07:37:57;15.68;;;3.58;;
55170;SDS011;41060;47.510;8.680;2024-02-16T07:40:24;11.23;;;3.83;;
55170;SDS011;41060;47.510;8.680;2024-02-16T07:42:53;9.98;;;3.85;;
55170;SDS011;41060;47.510;8.680;2024-02-16T07:45:20;11.25;;;3.90;;
55170;SDS011;41060;47.510;8.680;2024-02-16T07:47:48;6.82;;;3.72;;
55170;SDS011;41060;47.510;8.680;2024-02-16T07:50:18;8.88;;;3.42;;
55170;SDS011;41060;47.510;8.680;2024-02-16T07:52:46;10.60;;;3.50;;
55170;SDS011;41060;47.510;8.680;2024-02-16T07:55:13;7.22;;;4.25;;
55170;SDS011;41060;47.510;8.680;2024-02-16T07:57:40;6.22;;;3.60;;
55170;SDS011;41060;47.510;8.680;2024-02-16T08:00:07;7.32;;;4.22;;
55170;SDS011;41060;47.510;8.680;2024-02-16T08:02:36;6.25;;;3.20;;
55170;SDS011;41060;47.510;8.680;2024-02-16T08:05:05;6.40;;;3.50;;
55170;SDS011;41060;47.510;8.680;2024-02-16T08:07:34;9.65;;;3.47;;
55170;SDS011;41060;47.510;8.680;2024-02-16T08:10:01;5.93;;;3.55;;
55170;SDS011;41060;47.510;8.680;2024-02-16T08:12:28;12.18;;;4.85;;
55170;SDS011;41060;47.510;8.680;2024-02-16T08:14:57;6.88;;;3.60;;
55170;SDS011;41060;47.510;8.680;2024-02-16T08:17:24;6.28;;;3.47;;
55170;SDS011;41060;47.510;8.680;2024-02-16T08:19:51;10.63;;;3.78;;
55170;SDS011;41060;47.510;8.680;2024-02-16T08:22:20;10.68;;;3.33;;
55170;SDS011;41060;47.510;8.680;2024-02-16T08:24:47;10.20;;;4.70;;
55170;SDS011;41060;47.510;8.680;2024-02-16T08:27:15;8.02;;;3.83;;
55170;SDS011;41060;47.510;8.680;2024-02-16T08:29:43;11.75;;;3.88;;
55170;SDS011;41060;47.510;8.680;2024-02-16T08:32:10;7.80;;;3.53;;
55170;SDS011;41060;47.510;8.680;2024-02-16T08:34:36;5.25;;;3.35;;
55170;SDS011;41060;47.510;8.680;2024-02-16T08:37:04;6.18;;;3.55;;
55170;SDS011;41060;47.510;8.680;2024-02-16T08:39:33;7.63;;;4.03;;
55170;SDS011;41060;47.510;8.680;2024-02-16T08:42:00;12.55;;;3.85;;
55170;SDS011;41060;47.510;8.680;2024-02-16T08:44:28;8.98;;;3.72;;
55170;SDS011;41060;47.510;8.680;2024-02-16T08:46:55;12.00;;;3.45;;
55170;SDS011;41060;47.510;8.680;2024-02-16T08:49:22;7.15;;;3.95;;
55170;SDS011;41060;47.510;8.680;2024-02-16T08:51:49;11.75;;;4.38;;
55170;SDS011;41060;47.510;8.680;2024-02-16T08:54:16;6.18;;;3.53;;
55170;SDS011;41060;47.510;8.680;2024-02-16T08:56:45;9.57;;;4.35;;
55170;SDS011;41060;47.510;8.680;2024-02-16T08:59:14;8.88;;;3.58;;
55170;SDS011;41060;47.510;8.680;2024-02-16T09:01:42;8.85;;;3.58;;
55170;SDS011;41060;47.510;8.680;2024-02-16T09:04:09;9.70;;;3.97;;
55170;SDS011;41060;47.510;8.680;2024-02-16T09:06:36;7.28;;;3.33;;
55170;SDS011;41060;47.510;8.680;2024-02-16T09:09:04;8.38;;;4.32;;
55170;SDS011;41060;47.510;8.680;2024-02-16T09:11:32;9.68;;;3.95;;
55170;SDS011;41060;47.510;8.680;2024-02-16T09:14:00;7.28;;;3.78;;
55170;SDS011;41060;47.510;8.680;2024-02-16T09:16:27;11.68;;;4.28;;
55170;SDS011;41060;47.510;8.680;2024-02-16T09:18:54;7.68;;;3.53;;
55170;SDS011;41060;47.510;8.680;2024-02-16T09:21:22;9.25;;;4.40;;
55170;SDS011;41060;47.510;8.680;2024-02-16T09:23:52;6.55;;;3.40;;
55170;SDS011;41060;47.510;8.680;2024-02-16T09:26:18;4.70;;;3.47;;
55170;SDS011;41060;47.510;8.680;2024-02-16T09:28:46;6.82;;;3.33;;
55170;SDS011;41060;47.510;8.680;2024-02-16T09:31:15;7.55;;;3.90;;
55170;SDS011;41060;47.510;8.680;2024-02-16T09:33:41;7.50;;;3.25;;
55170;SDS011;41060;47.510;8.680;2024-02-16T09:36:09;7.43;;;3.60;;
55170;SDS011;41060;47.510;8.680;2024-02-16T09:38:35;7.75;;;3.10;;
55170;SDS011;41060;47.510;8.680;2024-02-16T09:41:02;14.10;;;4.90;;
55170;SDS011;41060;47.510;8.680;2024-02-16T09:43:29;7.25;;;3.40;;
55170;SDS011;41060;47.510;8.680;2024-02-16T09:45:56;5.72;;;2.70;;
55170;SDS011;41060;47.510;8.680;2024-02-16T09:48:27;5.55;;;2.95;;
55170;SDS011;41060;47.510;8.680;2024-02-16T09:50:55;4.28;;;2.70;;
55170;SDS011;41060;47.510;8.680;2024-02-16T09:53:24;5.30;;;2.40;;
55170;SDS011;41060;47.510;8.680;2024-02-16T09:55:52;4.78;;;2.58;;
55170;SDS011;41060;47.510;8.680;2024-02-16T09:58:20;3.95;;;2.60;;
55170;SDS011;41060;47.510;8.680;2024-02-16T10:00:48;5.65;;;2.30;;
55170;SDS011;41060;47.510;8.680;2024-02-16T10:03:22;3.67;;;2.08;;
55170;SDS011;41060;47.510;8.680;2024-02-16T10:05:51;3.45;;;2.13;;
55170;SDS011;41060;47.510;8.680;2024-02-16T10:08:18;7.80;;;2.00;;
55170;SDS011;41060;47.510;8.680;2024-02-16T10:10:45;3.17;;;2.05;;
55170;SDS011;41060;47.510;8.680;2024-02-16T10:13:12;4.43;;;2.15;;
55170;SDS011;41060;47.510;8.680;2024-02-16T10:15:39;6.07;;;1.90;;
55170;SDS011;41060;47.510;8.680;2024-02-16T10:18:06;4.15;;;1.85;;
55170;SDS011;41060;47.510;8.680;2024-02-16T10:20:35;3.42;;;2.38;;
55170;SDS011;41060;47.510;8.680;2024-02-16T10:23:06;4.90;;;2.40;;
55170;SDS011;41060;47.510;8.680;2024-02-16T10:25:34;7.10;;;2.53;;
55170;SDS011;41060;47.510;8.680;2024-02-16T10:28:03;3.22;;;1.42;;
55170;SDS011;41060;47.510;8.680;2024-02-16T10:30:34;2.97;;;1.58;;
55170;SDS011;41060;47.510;8.680;2024-02-16T10:33:03;2.70;;;1.63;;
55170;SDS011;41060;47.510;8.680;2024-02-16T10:35:30;6.20;;;1.88;;
55170;SDS011;41060;47.510;8.680;2024-02-16T10:37:59;3.25;;;1.95;;
55170;SDS011;41060;47.510;8.680;2024-02-16T10:40:32;3.13;;;1.20;;
55170;SDS011;41060;47.510;8.680;2024-02-16T10:43:00;4.97;;;1.60;;
55170;SDS011;41060;47.510;8.680;2024-02-16T10:45:32;2.75;;;1.60;;
55170;SDS011;41060;47.510;8.680;2024-02-16T10:48:00;6.80;;;2.15;;
55170;SDS011;41060;47.510;8.680;2024-02-16T10:50:27;6.45;;;2.50;;
55170;SDS011;41060;47.510;8.680;2024-02-16T10:52:56;4.25;;;2.20;;
55170;SDS011;41060;47.510;8.680;2024-02-16T10:55:28;2.85;;;1.95;;
55170;SDS011;41060;47.510;8.680;2024-02-16T10:57:57;2.40;;;1.48;;
55170;SDS011;41060;47.510;8.680;2024-02-16T11:00:25;3.85;;;1.85;;
55170;SDS011;41060;47.510;8.680;2024-02-16T11:02:55;4.72;;;1.98;;
55170;SDS011;41060;47.510;8.680;2024-02-16T11:05:34;3.65;;;1.95;;
55170;SDS011;41060;47.510;8.680;2024-02-16T11:08:02;3.45;;;1.63;;
55170;SDS011;41060;47.510;8.680;2024-02-16T11:10:30;4.68;;;1.90;;
55170;SDS011;41060;47.510;8.680;2024-02-16T11:13:01;5.10;;;1.88;;
55170;SDS011;41060;47.510;8.680;2024-02-16T11:15:30;5.43;;;2.10;;
55170;SDS011;41060;47.510;8.680;2024-02-16T11:17:58;3.03;;;2.22;;
55170;SDS011;41060;47.510;8.680;2024-02-16T11:20:26;9.50;;;4.70;;
55170;SDS011;41060;47.510;8.680;2024-02-16T11:23:04;3.63;;;2.13;;
55170;SDS011;41060;47.510;8.680;2024-02-16T11:25:31;4.85;;;3.10;;
55170;SDS011;41060;47.510;8.680;2024-02-16T11:27:59;8.07;;;3.50;;
55170;SDS011;41060;47.510;8.680;2024-02-16T11:30:33;3.17;;;1.67;;
55170;SDS011;41060;47.510;8.680;2024-02-16T11:33:05;4.30;;;2.40;;
55170;SDS011;41060;47.510;8.680;2024-02-16T11:35:31;5.32;;;1.98;;
55170;SDS011;41060;47.510;8.680;2024-02-16T11:37:58;3.58;;;1.90;;
55170;SDS011;41060;47.510;8.680;2024-02-16T11:40:25;3.85;;;1.67;;
55170;SDS011;41060;47.510;8.680;2024-02-16T11:42:57;3.17;;;1.48;;
55170;SDS011;41060;47.510;8.680;2024-02-16T11:45:25;2.60;;;1.38;;
55170;SDS011;41060;47.510;8.680;2024-02-16T11:48:03;1.65;;;1.23;;
55170;SDS011;41060;47.510;8.680;2024-02-16T11:50:31;3.03;;;1.15;;
55170;SDS011;41060;47.510;8.680;2024-02-16T11:52:59;1.98;;;1.25;;
55170;SDS011;41060;47.510;8.680;2024-02-16T11:55:25;3.13;;;1.30;;
55170;SDS011;41060;47.510;8.680;2024-02-16T11:57:53;3.28;;;1.40;;
55170;SDS011;41060;47.510;8.680;2024-02-16T12:00:21;3.40;;;1.80;;
55170;SDS011;41060;47.510;8.680;2024-02-16T12:02:58;3.03;;;1.00;;
55170;SDS011;41060;47.510;8.680;2024-02-16T12:05:27;2.63;;;1.00;;
55170;SDS011;41060;47.510;8.680;2024-02-16T12:07:57;2.33;;;1.23;;
55170;SDS011;41060;47.510;8.680;2024-02-16T12:10:24;2.63;;;1.50;;
55170;SDS011;41060;47.510;8.680;2024-02-16T12:12:53;5.63;;;1.33;;
55170;SDS011;41060;47.510;8.680;2024-02-16T12:15:19;4.82;;;1.10;;
55170;SDS011;41060;47.510;8.680;2024-02-16T12:17:57;3.35;;;1.20;;
55170;SDS011;41060;47.510;8.680;2024-02-16T12:20:27;1.38;;;1.00;;
55170;SDS011;41060;47.510;8.680;2024-02-16T12:22:56;2.40;;;1.25;;
55170;SDS011;41060;47.510;8.680;2024-02-16T12:25:25;4.82;;;1.23;;
55170;SDS011;41060;47.510;8.680;2024-02-16T12:27:51;2.65;;;1.48;;
55170;SDS011;41060;47.510;8.680;2024-02-16T12:30:21;4.18;;;2.13;;
55170;SDS011;41060;47.510;8.680;2024-02-16T12:32:48;3.70;;;1.70;;
55170;SDS011;41060;47.510;8.680;2024-02-16T12:35:15;3.47;;;1.52;;
55170;SDS011;41060;47.510;8.680;2024-02-16T12:37:46;3.42;;;1.55;;
55170;SDS011;41060;47.510;8.680;2024-02-16T12:40:14;5.93;;;1.50;;
55170;SDS011;41060;47.510;8.680;2024-02-16T12:42:41;3.20;;;1.60;;
55170;SDS011;41060;47.510;8.680;2024-02-16T12:45:08;2.72;;;1.60;;
55170;SDS011;41060;47.510;8.680;2024-02-16T12:47:36;3.33;;;1.58;;
55170;SDS011;41060;47.510;8.680;2024-02-16T12:50:03;3.22;;;1.80;;
55170;SDS011;41060;47.510;8.680;2024-02-16T12:52:30;2.28;;;1.10;;
55170;SDS011;41060;47.510;8.680;2024-02-16T12:55:01;4.80;;;1.48;;
55170;SDS011;41060;47.510;8.680;2024-02-16T12:57:28;3.53;;;1.48;;
55170;SDS011;41060;47.510;8.680;2024-02-16T12:59:54;2.42;;;1.05;;
55170;SDS011;41060;47.510;8.680;2024-02-16T13:02:21;3.08;;;1.08;;
55170;SDS011;41060;47.510;8.680;2024-02-16T13:04:48;2.38;;;1.20;;
55170;SDS011;41060;47.510;8.680;2024-02-16T13:07:15;3.92;;;1.83;;
55170;SDS011;41060;47.510;8.680;2024-02-16T13:09:42;7.72;;;1.98;;
55170;SDS011;41060;47.510;8.680;2024-02-16T13:12:11;4.13;;;1.40;;
55170;SDS011;41060;47.510;8.680;2024-02-16T13:14:38;3.78;;;1.52;;
55170;SDS011;41060;47.510;8.680;2024-02-16T13:17:05;3.65;;;1.17;;
55170;SDS011;41060;47.510;8.680;2024-02-16T13:19:32;3.05;;;1.60;;
55170;SDS011;41060;47.510;8.680;2024-02-16T13:22:01;4.65;;;1.45;;
55170;SDS011;41060;47.510;8.680;2024-02-16T13:24:28;2.88;;;1.80;;
55170;SDS011;41060;47.510;8.680;2024-02-16T13:26:55;1.85;;;1.15;;
55170;SDS011;41060;47.510;8.680;2024-02-16T13:29:23;2.38;;;1.05;;
55170;SDS011;41060;47.510;8.680;2024-02-16T13:31:50;2.67;;;1.50;;
55170;SDS011;41060;47.510;8.680;2024-02-16T13:34:17;2.75;;;1.38;;
55170;SDS011;41060;47.510;8.680;2024-02-16T13:36:43;2.08;;;1.05;;
55170;SDS011;41060;47.510;8.680;2024-02-16T13:39:11;3.83;;;1.20;;
55170;SDS011;41060;47.510;8.680;2024-02-16T13:41:42;2.10;;;1.20;;
55170;SDS011;41060;47.510;8.680;2024-02-16T13:44:12;4.82;;;1.60;;
55170;SDS011;41060;47.510;8.680;2024-02-16T13:46:40;12.35;;;1.35;;
55170;SDS011;41060;47.510;8.680;2024-02-16T13:49:12;5.00;;;1.17;;
55170;SDS011;41060;47.510;8.680;2024-02-16T13:51:39;2.40;;;1.45;;
55170;SDS011;41060;47.510;8.680;2024-02-16T13:54:06;2.95;;;1.10;;
55170;SDS011;41060;47.510;8.680;2024-02-16T13:56:33;1.48;;;0.98;;
55170;SDS011;41060;47.510;8.680;2024-02-16T13:59:00;2.97;;;1.15;;
55170;SDS011;41060;47.510;8.680;2024-02-16T14:01:27;2.30;;;1.00;;
55170;SDS011;41060;47.510;8.680;2024-02-16T14:03:56;3.08;;;0.98;;
55170;SDS011;41060;47.510;8.680;2024-02-16T14:06:23;3.22;;;1.00;;
55170;SDS011;41060;47.510;8.680;2024-02-16T14:08:49;2.22;;;1.23;;
55170;SDS011;41060;47.510;8.680;2024-02-16T14:11:18;2.17;;;0.77;;
55170;SDS011;41060;47.510;8.680;2024-02-16T14:13:45;3.55;;;1.40;;
55170;SDS011;41060;47.510;8.680;2024-02-16T14:16:12;2.58;;;1.13;;
55170;SDS011;41060;47.510;8.680;2024-02-16T14:18:39;1.95;;;0.80;;
55170;SDS011;41060;47.510;8.680;2024-02-16T14:21:07;2.80;;;1.05;;
55170;SDS011;41060;47.510;8.680;2024-02-16T14:23:34;2.42;;;0.68;;
55170;SDS011;41060;47.510;8.680;2024-02-16T14:26:01;1.45;;;0.70;;
55170;SDS011;41060;47.510;8.680;2024-02-16T14:28:27;1.98;;;0.90;;
55170;SDS011;41060;47.510;8.680;2024-02-16T14:30:54;2.00;;;1.00;;
55170;SDS011;41060;47.510;8.680;2024-02-16T14:33:21;1.52;;;0.77;;
55170;SDS011;41060;47.510;8.680;2024-02-16T14:35:48;3.55;;;1.35;;
55170;SDS011;41060;47.510;8.680;2024-02-16T14:38:16;1.85;;;0.75;;
55170;SDS011;41060;47.510;8.680;2024-02-16T14:40:44;3.10;;;0.88;;
55170;SDS011;41060;47.510;8.680;2024-02-16T14:43:10;3.10;;;1.00;;
55170;SDS011;41060;47.510;8.680;2024-02-16T14:45:37;7.10;;;0.95;;
55170;SDS011;41060;47.510;8.680;2024-02-16T14:48:05;1.98;;;1.00;;
55170;SDS011;41060;47.510;8.680;2024-02-16T14:50:32;3.50;;;1.13;;
55170;SDS011;41060;47.510;8.680;2024-02-16T14:53:00;2.58;;;0.90;;